Time;durP1;ratioP1;P1;durP2;ratioP2;P2;SDS_P1;SDS_P2;PMS_P1;PMS_P2;Temp;Humidity;BMP_temperature;BMP_pressure;BME280_temperature;BME280_humidity;BME280_pressure;Samples;Min_cycle;Max_cycle;Signal;HPM_P1;HPM_P2
2021/11/12 00:03:42;;;;;;;199.85;81.35;;;0.20;99.90;;;;;;6249219;23;20134;-85
2021/11/12 00:12:36;;;;;;;189.20;80.70;;;0.10;99.90;;;;;;6247702;23;20127;-87
2021/11/12 00:15:23;;;;;;;194.55;78.13;;;0.00;99.90;;;;;;6228565;23;20354;-84
2021/11/12 00:18:10;;;;;;;189.82;78.15;;;0.00;99.90;;;;;;6254180;23;20119;-84
2021/11/12 00:21:00;;;;;;;204.07;81.40;;;0.00;99.90;;;;;;6212092;23;20047;-86
2021/11/12 00:23:47;;;;;;;196.00;78.68;;;0.00;99.90;;;;;;6251924;23;20093;-85
2021/11/12 00:26:36;;;;;;;205.00;80.53;;;0.00;99.90;;;;;;6230041;23;20439;-84
2021/11/12 00:29:24;;;;;;;191.13;77.50;;;0.00;99.90;;;;;;6230773;23;20093;-85
2021/11/12 00:33:05;;;;;;;202.85;79.07;;;0.10;99.90;;;;;;6244677;23;20093;-86
2021/11/12 00:44:08;;;;;;;173.13;74.05;;;-0.10;99.90;;;;;;6245500;23;20101;-85
2021/11/12 00:50:23;;;;;;;188.43;78.90;;;0.00;99.90;;;;;;6202720;23;20090;-85
2021/11/12 00:56:00;;;;;;;197.77;77.18;;;0.00;99.90;;;;;;6244806;23;20082;-85
2021/11/12 00:58:49;;;;;;;228.30;85.95;;;0.00;99.90;;;;;;6225473;23;20095;-85
2021/11/12 01:01:39;;;;;;;231.77;89.15;;;0.00;99.90;;;;;;6204057;23;20077;-85
2021/11/12 01:04:27;;;;;;;223.60;85.85;;;0.20;99.90;;;;;;6245998;23;20162;-86
2021/11/12 01:07:14;;;;;;;227.15;86.18;;;0.20;99.90;;;;;;6245776;23;20431;-85
2021/11/12 01:10:03;;;;;;;209.15;84.82;;;0.20;99.90;;;;;;6245594;23;20028;-84
2021/11/12 01:12:52;;;;;;;226.88;82.10;;;0.20;99.90;;;;;;6244467;23;20116;-86
2021/11/12 01:15:39;;;;;;;227.52;83.60;;;0.20;99.90;;;;;;6223244;23;20050;-85
2021/11/12 01:18:26;;;;;;;226.75;80.15;;;0.20;99.90;;;;;;6244363;23;20024;-85
2021/11/12 01:21:15;;;;;;;226.65;82.57;;;0.10;99.90;;;;;;6244628;23;20043;-84
2021/11/12 01:24:02;;;;;;;234.02;83.20;;;0.10;99.90;;;;;;6222980;23;20423;-85
2021/11/12 01:26:52;;;;;;;221.18;77.88;;;0.10;99.90;;;;;;6246076;23;20031;-84
2021/11/12 01:29:41;;;;;;;236.25;81.38;;;0.10;99.90;;;;;;6224099;23;20086;-85
2021/11/12 01:32:30;;;;;;;227.02;80.93;;;0.00;99.90;;;;;;6243953;23;20035;-85
2021/11/12 01:35:19;;;;;;;235.48;81.80;;;0.00;99.90;;;;;;6244310;23;20335;-85
2021/11/12 01:38:06;;;;;;;249.13;83.47;;;-0.10;99.90;;;;;;6222997;23;20035;-84
2021/11/12 01:40:54;;;;;;;237.00;82.05;;;-0.10;99.90;;;;;;6244512;23;20395;-85
2021/11/12 01:43:48;;;;;;;226.02;79.57;;;-0.10;99.90;;;;;;6244233;23;20024;-85
2021/11/12 01:46:48;;;;;;;227.77;77.45;;;-0.20;99.90;;;;;;6222889;23;20028;-85
2021/11/12 01:49:44;;;;;;;229.15;82.70;;;-0.30;99.90;;;;;;6244539;23;20047;-85
2021/11/12 01:52:42;;;;;;;250.88;84.75;;;-0.20;99.90;;;;;;6222859;23;20032;-85
2021/11/12 01:55:49;;;;;;;232.57;83.97;;;-0.10;99.90;;;;;;6221623;23;20074;-86
2021/11/12 02:01:45;;;;;;;208.00;77.82;;;-0.20;99.90;;;;;;6245252;23;20074;-86
2021/11/12 02:04:35;;;;;;;198.35;75.57;;;-0.30;99.90;;;;;;6245162;23;20024;-84
2021/11/12 02:07:22;;;;;;;197.82;74.95;;;-0.30;99.90;;;;;;6223793;23;20028;-85
2021/11/12 02:10:14;;;;;;;179.18;74.35;;;-0.30;99.90;;;;;;6246071;23;20162;-84
2021/11/12 02:13:24;;;;;;;189.68;72.20;;;-0.40;99.90;;;;;;6247677;23;20046;-84
2021/11/12 02:16:21;;;;;;;186.40;75.22;;;-0.40;99.90;;;;;;6228398;23;20020;-85
2021/11/12 02:19:12;;;;;;;179.32;74.85;;;-0.30;99.90;;;;;;6248334;23;20031;-84
2021/11/12 02:22:07;;;;;;;168.82;70.28;;;-0.30;99.90;;;;;;6224586;23;20185;-85
2021/11/12 02:27:59;;;;;;;154.98;69.32;;;-0.30;99.90;;;;;;6246201;23;20028;-85
2021/11/12 02:30:51;;;;;;;190.45;74.13;;;-0.20;99.90;;;;;;6246139;23;20027;-85
2021/11/12 02:33:41;;;;;;;219.98;78.35;;;-0.10;99.90;;;;;;6247711;23;20028;-85
2021/11/12 02:36:28;;;;;;;195.38;77.78;;;-0.10;99.90;;;;;;6230878;23;20054;-86
2021/11/12 02:39:18;;;;;;;230.55;83.32;;;-0.20;99.90;;;;;;6228733;23;20054;-86
2021/11/12 02:42:06;;;;;;;250.63;82.68;;;-0.20;99.90;;;;;;6229459;23;20020;-86
2021/11/12 02:44:53;;;;;;;287.35;85.65;;;-0.20;99.90;;;;;;6250443;23;20081;-85
2021/11/12 02:47:40;;;;;;;228.90;82.63;;;-0.30;99.90;;;;;;6250940;23;20085;-85
2021/11/12 02:50:27;;;;;;;246.50;83.75;;;-0.40;99.90;;;;;;6249422;23;20082;-85
2021/11/12 02:53:16;;;;;;;253.38;84.00;;;-0.40;99.90;;;;;;6252262;23;20020;-86
2021/11/12 02:56:12;;;;;;;233.48;82.80;;;-0.50;99.90;;;;;;6253737;22;20081;-85
2021/11/12 02:59:07;;;;;;;207.20;79.13;;;-0.50;99.90;;;;;;6231017;23;20078;-84
2021/11/12 03:01:57;;;;;;;234.68;81.40;;;-0.40;99.90;;;;;;6249045;23;20080;-84
2021/11/12 03:04:47;;;;;;;241.93;81.00;;;-0.50;99.90;;;;;;6205554;23;20276;-85
2021/11/12 03:07:37;;;;;;;243.88;80.05;;;-0.50;99.90;;;;;;6227757;23;20031;-85
2021/11/12 03:10:25;;;;;;;200.68;76.95;;;-0.60;99.90;;;;;;6247186;23;20109;-86
2021/11/12 03:13:12;;;;;;;199.25;75.25;;;-0.60;99.90;;;;;;6222676;23;20032;-85
2021/11/12 03:16:00;;;;;;;195.00;73.93;;;-0.70;99.90;;;;;;6243614;23;20085;-84
2021/11/12 03:18:49;;;;;;;181.02;71.55;;;-0.80;99.90;;;;;;6252928;23;20080;-84
2021/11/12 03:21:39;;;;;;;172.68;72.78;;;-0.80;99.90;;;;;;6242912;23;20051;-84
2021/11/12 03:24:35;;;;;;;183.68;72.03;;;-0.90;99.90;;;;;;6245601;23;20068;-85
2021/11/12 03:28:09;;;;;;;189.90;74.95;;;-0.80;99.90;;;;;;6244643;23;20020;-85
2021/11/12 05:50:14;;;;;;;173.70;60.33;;;-0.90;99.90;;;;;;6243607;23;20058;-83
2021/11/12 05:56:07;;;;;;;187.18;63.17;;;-0.90;99.90;;;;;;6242490;23;20019;-81
2021/11/12 05:58:56;;;;;;;195.43;62.92;;;-0.90;99.90;;;;;;6222532;23;20020;-80
2021/11/12 06:01:47;;;;;;;195.25;64.72;;;-0.90;99.90;;;;;;6223441;23;20399;-81
2021/11/12 06:04:36;;;;;;;220.15;64.20;;;-1.00;99.90;;;;;;6245073;23;20028;-81
2021/11/12 06:07:29;;;;;;;211.15;66.07;;;-1.00;99.90;;;;;;6243846;23;20023;-82
2021/11/12 06:10:17;;;;;;;193.77;62.40;;;-1.00;99.90;;;;;;6242821;23;20023;-82
2021/11/12 06:13:07;;;;;;;188.00;60.22;;;-1.10;99.90;;;;;;6223278;23;20048;-82
2021/11/12 06:15:55;;;;;;;190.13;62.85;;;-1.10;99.90;;;;;;6221794;23;20024;-83
2021/11/12 06:18:43;;;;;;;182.05;66.15;;;-1.10;99.90;;;;;;6242477;23;20117;-84
2021/11/12 06:21:30;;;;;;;179.27;63.33;;;-1.00;99.90;;;;;;6221758;23;20127;-83
2021/11/12 06:24:17;;;;;;;276.23;71.88;;;-1.10;99.90;;;;;;6223565;23;20028;-85
2021/11/12 06:27:08;;;;;;;192.57;67.10;;;-1.10;99.90;;;;;;6245105;23;20024;-85
2021/11/12 06:29:55;;;;;;;212.15;69.35;;;-1.20;99.90;;;;;;6246822;23;20039;-85
2021/11/12 06:32:44;;;;;;;275.75;72.70;;;-1.10;99.90;;;;;;6221539;23;20028;-85
2021/11/12 06:35:36;;;;;;;283.10;71.43;;;-1.10;99.90;;;;;;6248963;23;20028;-83
2021/11/12 06:38:28;;;;;;;313.50;75.40;;;-1.20;99.90;;;;;;6223514;23;20055;-84
2021/11/12 06:41:24;;;;;;;227.77;53.07;;;-1.20;99.90;;;;;;6247873;23;20070;-84
2021/11/12 06:50:12;;;;;;;211.25;71.85;;;-1.00;99.90;;;;;;6243789;23;20024;-82
2021/11/12 06:53:01;;;;;;;352.05;79.15;;;-0.90;99.90;;;;;;6245813;23;20107;-86
2021/11/12 06:55:53;;;;;;;375.33;80.78;;;-0.90;99.90;;;;;;6221986;23;20322;-87
2021/11/12 06:58:44;;;;;;;207.40;70.40;;;-0.90;99.90;;;;;;6234054;23;20039;-84
2021/11/12 07:01:48;;;;;;;;;;;;;;;;;;;;;
2021/11/12 07:05:09;;;;;;;240.27;75.82;;;-0.70;99.90;;;;;;6252324;23;20103;-87
2021/11/12 07:08:06;;;;;;;295.58;78.15;;;-0.60;99.90;;;;;;6234982;23;20062;-86
2021/11/12 07:11:05;;;;;;;223.45;75.50;;;-0.60;99.90;;;;;;6249775;23;20029;-85
2021/11/12 07:13:55;;;;;;;217.48;75.53;;;-0.50;99.90;;;;;;6245000;23;20103;-85
2021/11/12 07:16:48;;;;;;;268.48;79.85;;;-0.30;99.90;;;;;;6243872;23;20062;-87
2021/11/12 07:25:43;;;;;;;;;;;;;;;;;;;;;
2021/11/12 07:32:12;;;;;;;227.32;78.75;;;0.00;99.90;;;;;;5905378;24;20028;-83
2021/11/12 07:35:44;;;;;;;248.18;83.50;;;0.10;99.90;;;;;;5905044;24;20037;-87
2021/11/12 07:39:16;;;;;;;220.75;79.10;;;0.20;99.90;;;;;;6101516;23;20104;-88
2021/11/12 08:02:07;;;;;;;416.33;83.28;;;0.60;99.90;;;;;;6048184;23;20048;-88
2021/11/12 08:16:06;;;;;;;180.48;74.22;;;1.20;99.90;;;;;;5952851;24;20317;-88
2021/11/12 08:19:56;;;;;;;169.65;73.35;;;1.50;99.90;;;;;;5938859;24;20453;-87
2021/11/12 08:23:27;;;;;;;162.27;74.25;;;1.70;99.90;;;;;;5937170;24;20156;-89
2021/11/12 08:27:16;;;;;;;;;;;;;;;;;;;;;
2021/11/12 08:30:49;;;;;;;142.77;67.40;;;2.10;99.90;;;;;;6094624;23;20040;-88
2021/11/12 08:46:14;;;;;;;88.55;52.33;;;3.70;99.90;;;;;;6041394;23;20015;-89
2021/11/12 08:53:02;;;;;;;76.40;48.10;;;4.10;99.90;;;;;;6097126;23;20453;-88
2021/11/12 08:56:13;;;;;;;57.15;38.42;;;5.00;99.90;;;;;;6135659;23;20056;-89
2021/11/12 09:02:30;;;;;;;41.53;29.30;;;6.20;99.90;;;;;;6251631;23;20042;-89
2021/11/12 09:05:23;;;;;;;44.27;30.07;;;6.90;99.90;;;;;;6232716;23;20020;-90
2021/11/12 09:09:16;;;;;;;;;;;;;;;;;;;;;
2021/11/12 09:12:24;;;;;;;;;;;;;;;;;;;;;
2021/11/12 09:16:10;;;;;;;36.45;26.52;;;7.80;99.90;;;;;;6249684;23;20427;-90
2021/11/12 09:19:15;;;;;;;;;;;8.80;99.90;;;;;;6250158;23;20076;-87
2021/11/12 09:22:11;;;;;;;30.45;22.75;;;10.20;99.90;;;;;;6241546;23;19915;-88
2021/11/12 09:25:37;;;;;;;;;;;;;;;;;;;;;
2021/11/12 09:29:06;;;;;;;32.60;24.23;;;11.40;96.40;;;;;;6256435;23;20036;-89
2021/11/12 09:32:37;;;;;;;29.90;22.52;;;11.30;93.40;;;;;;6171323;23;20035;-87
2021/11/12 09:36:25;;;;;;;28.67;22.10;;;10.90;93.90;;;;;;6158033;23;20022;-88
2021/11/12 09:39:27;;;;;;;;;;;;;;;;;;;;;
2021/11/12 09:47:14;;;;;;;26.83;20.98;;;13.60;87.20;;;;;;6084591;23;20023;-86
2021/11/12 09:51:11;;;;;;;;;;;;;;;;;;;;;
2021/11/12 09:54:39;;;;;;;;;;;;;;;;;;;;;
2021/11/12 09:58:00;;;;;;;;;;;;;;;;;;;;;
2021/11/12 10:01:13;;;;;;;27.02;20.35;;;14.70;72.10;;;;;;6077714;23;20103;-88
2021/11/12 10:17:52;;;;;;;;;;;;;;;;;;;;;
2021/11/12 10:25:36;;;;;;;26.48;22.30;;;15.70;71.70;;;;;;6111438;23;20268;-92
2021/11/12 10:29:02;;;;;;;28.23;21.90;;;16.40;67.20;;;;;;6246920;23;20031;-89
2021/11/12 10:54:06;;;;;;;;;;;;;;;;;;;;;
2021/11/12 11:09:55;;;;;;;;;;;;;;;;;;;;;
2021/11/12 11:13:18;;;;;;;22.70;17.00;;;17.70;61.00;;;;;;5778041;24;20018;-92
2021/11/12 11:16:24;;;;;;;22.73;17.48;;;17.80;60.40;;;;;;6027331;23;20330;-92
2021/11/12 11:19:54;;;;;;;21.05;17.17;;;17.50;61.70;;;;;;6184725;23;20024;-90
2021/11/12 11:23:15;;;;;;;22.10;15.82;;;17.50;61.40;;;;;;6106071;23;20349;-89
2021/11/12 11:30:10;;;;;;;;;;;18.00;61.70;;;;;;6005374;23;20098;-90
2021/11/12 11:33:11;;;;;;;21.92;17.27;;;18.10;59.90;;;;;;6043833;23;19929;-91
2021/11/12 11:36:47;;;;;;;;;;;;;;;;;;;;;
2021/11/12 11:39:53;;;;;;;18.92;15.27;;;18.80;57.40;;;;;;6133255;23;20057;-89
2021/11/12 11:42:48;;;;;;;24.10;16.27;;;19.70;55.10;;;;;;6242799;23;20082;-90
2021/11/12 11:49:35;;;;;;;;;;;;;;;;;;;;;
2021/11/12 11:53:16;;;;;;;22.15;15.82;;;20.40;53.10;;;;;;6238197;22;20024;-90
2021/11/12 11:56:18;;;;;;;20.33;16.50;;;20.60;52.50;;;;;;6245391;23;20028;-89
2021/11/12 11:59:35;;;;;;;20.20;16.45;;;20.60;52.20;;;;;;6227063;23;20020;-90
2021/11/12 12:02:25;;;;;;;21.67;16.25;;;20.40;52.60;;;;;;6248340;23;20159;-90
2021/11/12 12:05:14;;;;;;;19.83;16.60;;;20.10;53.50;;;;;;6247557;23;20038;-88
2021/11/12 12:08:27;;;;;;;18.63;14.70;;;20.00;53.90;;;;;;6223286;23;20032;-89
2021/11/12 12:11:23;;;;;;;18.63;14.85;;;20.60;53.80;;;;;;6246006;23;20028;-87
2021/11/12 12:14:20;;;;;;;18.00;14.73;;;20.70;52.20;;;;;;6244949;23;20028;-88
2021/11/12 12:17:51;;;;;;;17.40;14.60;;;21.20;51.70;;;;;;6227014;23;20024;-93
2021/11/12 12:22:02;;;;;;;;;;;;;;;;;;;;;
2021/11/12 12:37:23;;;;;;;20.58;15.35;;;22.70;46.50;;;;;;5916455;24;20036;-91
2021/11/12 13:35:33;;;;;;;15.27;12.07;;;19.60;54.10;;;;;;6137722;23;20045;-91
2021/11/12 13:42:51;;;;;;;15.50;12.48;;;19.80;53.10;;;;;;6247799;23;20020;-90
2021/11/12 13:46:37;;;;;;;18.30;13.35;;;19.70;54.10;;;;;;6241261;23;20415;-90
2021/11/12 13:49:53;;;;;;;13.48;11.57;;;19.90;54.00;;;;;;6158658;23;20037;-89
2021/11/12 13:53:22;;;;;;;19.67;12.82;;;19.60;53.70;;;;;;6042653;23;20031;-88
2021/11/12 13:57:15;;;;;;;15.23;12.98;;;19.40;54.80;;;;;;6034654;23;20064;-88
2021/11/12 14:00:26;;;;;;;;;;;;;;;;;;;;;
2021/11/12 14:09:02;;;;;;;;;;;;;;;;;;;;;
2021/11/12 14:12:54;;;;;;;;;;;;;;;;;;;;;
2021/11/12 14:37:19;;;;;;;;;;;;;;;;;;;;;
2021/11/12 14:48:53;;;;;;;20.35;14.20;;;17.20;59.90;;;;;;6147168;23;20013;-91
2021/11/12 14:52:06;;;;;;;21.73;16.38;;;16.60;61.50;;;;;;6239073;23;20198;-90
2021/11/12 14:55:09;;;;;;;25.92;19.20;;;15.70;64.60;;;;;;6245802;23;20043;-86
2021/11/12 14:57:59;;;;;;;26.05;19.58;;;15.00;66.90;;;;;;6245101;23;20024;-90
2021/11/12 15:00:48;;;;;;;30.63;20.98;;;14.40;70.20;;;;;;6244548;23;20082;-86
2021/11/12 15:03:41;;;;;;;31.00;21.70;;;14.00;72.00;;;;;;6243466;23;20024;-87
2021/11/12 15:06:28;;;;;;;33.90;25.02;;;13.20;75.00;;;;;;6240600;23;20085;-89
2021/11/12 15:09:22;;;;;;;39.55;26.80;;;12.90;75.90;;;;;;6242899;23;20418;-87
2021/11/12 15:12:10;;;;;;;36.80;27.15;;;12.30;77.50;;;;;;6220521;23;20043;-87
2021/11/12 15:15:00;;;;;;;38.92;27.20;;;11.70;80.50;;;;;;6245193;23;20062;-87
2021/11/12 15:17:51;;;;;;;39.90;28.92;;;10.90;83.70;;;;;;6244759;23;20031;-87
2021/11/12 15:20:39;;;;;;;46.53;29.33;;;10.40;88.40;;;;;;6244849;23;20103;-86
2021/11/12 15:23:45;;;;;;;41.28;28.17;;;9.90;91.80;;;;;;6243596;23;20419;-89
2021/11/12 15:29:30;;;;;;;51.05;31.73;;;8.60;99.90;;;;;;6243282;23;20028;-86
2021/11/12 15:35:10;;;;;;;52.45;34.78;;;7.60;99.90;;;;;;6246332;23;20392;-86
2021/11/12 15:41:04;;;;;;;54.35;35.47;;;6.90;99.90;;;;;;6249187;23;20048;-88
2021/11/12 15:46:50;;;;;;;60.30;38.35;;;6.20;99.90;;;;;;6249629;23;20020;-87
2021/11/12 15:49:40;;;;;;;58.88;36.42;;;5.90;99.90;;;;;;6249818;23;20315;-88
2021/11/12 15:52:38;;;;;;;59.42;37.50;;;5.70;99.90;;;;;;6251393;23;20111;-89
2021/11/12 15:55:39;;;;;;;65.13;39.78;;;5.40;99.90;;;;;;6248152;23;20066;-87
2021/11/12 16:13:23;;;;;;;76.70;44.10;;;4.40;99.90;;;;;;6248872;23;20051;-87
2021/11/12 16:22:42;;;;;;;81.15;46.17;;;4.10;99.90;;;;;;6249391;23;20024;-87
2021/11/12 16:25:29;;;;;;;81.05;47.53;;;4.00;99.90;;;;;;6251828;23;20283;-88
2021/11/12 16:28:20;;;;;;;92.25;52.22;;;4.00;99.90;;;;;;6251657;23;20032;-87
2021/11/12 16:31:10;;;;;;;99.85;52.50;;;4.00;99.90;;;;;;6248197;23;20399;-87
2021/11/12 16:34:02;;;;;;;95.05;54.58;;;4.00;99.90;;;;;;6248204;23;20024;-87
2021/11/12 16:40:46;;;;;;;104.63;57.15;;;3.90;99.90;;;;;;6247392;23;20028;-88
2021/11/12 16:51:59;;;;;;;108.93;57.75;;;3.60;99.90;;;;;;6248438;23;20036;-87
2021/11/12 17:04:41;;;;;;;123.72;61.88;;;3.20;99.90;;;;;;6246387;23;20059;-87
2021/11/12 17:07:58;;;;;;;125.22;60.28;;;3.10;99.90;;;;;;6225647;23;20090;-87
2021/11/12 17:11:02;;;;;;;120.28;60.42;;;3.00;99.90;;;;;;6248536;23;20020;-88
2021/11/12 17:17:21;;;;;;;138.35;65.47;;;2.80;99.90;;;;;;6247236;23;20024;-86
2021/11/12 17:48:22;;;;;;;229.15;78.60;;;2.50;99.90;;;;;;6248644;22;20024;-88
2021/11/12 18:03:31;;;;;;;453.58;78.57;;;2.30;99.90;;;;;;6250516;23;20111;-87
2021/11/12 18:13:04;;;;;;;468.05;83.53;;;2.20;99.90;;;;;;6250156;23;20098;-86
2021/11/12 18:22:33;;;;;;;305.25;77.88;;;2.10;99.90;;;;;;6248811;23;20023;-88
2021/11/12 21:47:10;;;;;;;129.30;59.92;;;-0.30;99.90;;;;;;6252395;23;20024;-88
2021/11/12 21:49:58;;;;;;;130.25;61.67;;;-0.30;99.90;;;;;;6252077;23;20119;-89
2021/11/12 21:52:45;;;;;;;134.85;63.53;;;-0.30;99.90;;;;;;6229319;23;20142;-90
2021/11/12 21:55:34;;;;;;;124.15;59.80;;;-0.30;99.90;;;;;;6232582;23;20063;-90
2021/11/12 21:58:22;;;;;;;131.15;62.40;;;-0.30;99.90;;;;;;6229621;23;20016;-89
2021/11/12 22:01:13;;;;;;;148.02;66.53;;;-0.40;99.90;;;;;;6250948;23;20031;-89
2021/11/12 22:04:00;;;;;;;141.02;65.53;;;-0.40;99.90;;;;;;6231076;23;20072;-90
2021/11/12 22:06:48;;;;;;;129.93;61.55;;;-0.40;99.90;;;;;;6230975;23;20020;-89
2021/11/12 22:09:44;;;;;;;127.25;60.13;;;-0.50;99.90;;;;;;6229149;23;20028;-89
2021/11/12 22:12:31;;;;;;;135.27;63.92;;;-0.50;99.90;;;;;;6249332;23;20024;-90
2021/11/12 22:15:19;;;;;;;137.50;64.75;;;-0.60;99.90;;;;;;6228439;23;20032;-88
2021/11/12 22:18:07;;;;;;;141.82;67.00;;;-0.50;99.90;;;;;;6247914;22;20704;-89
2021/11/12 22:20:54;;;;;;;142.05;66.32;;;-0.50;99.90;;;;;;6225512;23;20137;-87
2021/11/12 22:23:44;;;;;;;134.95;66.78;;;-0.50;99.90;;;;;;6244608;22;20095;-86
2021/11/12 22:26:32;;;;;;;193.43;81.38;;;-0.50;99.90;;;;;;6222956;22;20051;-88
2021/11/12 22:29:21;;;;;;;211.98;87.43;;;-0.50;99.90;;;;;;6242716;23;20027;-86
2021/11/12 22:32:08;;;;;;;236.15;90.35;;;-0.40;99.90;;;;;;6243661;23;20147;-87
2021/11/12 22:35:04;;;;;;;255.02;92.10;;;-0.40;99.90;;;;;;6242990;23;20024;-87
2021/11/12 22:37:54;;;;;;;278.38;98.75;;;-0.30;99.90;;;;;;6242287;23;20028;-86
2021/11/12 22:40:44;;;;;;;236.70;89.90;;;-0.20;99.90;;;;;;6243392;23;20147;-86
2021/11/12 22:43:32;;;;;;;203.18;85.07;;;-0.10;99.90;;;;;;6243830;23;20071;-88
2021/11/12 22:46:19;;;;;;;181.27;81.00;;;0.10;99.90;;;;;;6243826;23;20051;-86
2021/11/12 22:49:07;;;;;;;197.88;83.40;;;0.20;99.90;;;;;;6223047;23;20051;-87
2021/11/12 22:51:54;;;;;;;207.27;84.28;;;0.20;99.90;;;;;;6243502;23;20055;-86
2021/11/12 22:54:46;;;;;;;214.45;86.80;;;0.20;99.90;;;;;;6222398;23;20032;-87
2021/11/12 22:57:34;;;;;;;191.90;81.85;;;0.30;99.90;;;;;;6243181;23;20032;-87
2021/11/12 23:00:50;;;;;;;196.07;80.45;;;0.30;99.90;;;;;;6242996;23;20087;-87
2021/11/12 23:03:37;;;;;;;186.77;80.00;;;0.30;99.90;;;;;;6224419;23;20031;-86
2021/11/12 23:06:27;;;;;;;182.73;77.20;;;0.30;99.90;;;;;;6243141;23;20028;-85
2021/11/12 23:09:17;;;;;;;179.65;77.70;;;0.20;99.90;;;;;;6243267;23;20028;-87
2021/11/12 23:12:08;;;;;;;187.35;78.53;;;0.10;99.90;;;;;;6244142;23;20032;-87
2021/11/12 23:14:55;;;;;;;180.55;78.03;;;0.10;99.90;;;;;;6223469;23;20028;-86
2021/11/12 23:17:43;;;;;;;160.73;73.55;;;0.10;99.90;;;;;;6245674;23;20031;-87
2021/11/12 23:20:31;;;;;;;181.95;77.72;;;0.10;99.90;;;;;;6246408;22;20453;-86
2021/11/12 23:23:19;;;;;;;189.27;77.47;;;0.10;99.90;;;;;;6242566;23;20442;-87
2021/11/12 23:26:07;;;;;;;207.38;87.40;;;0.10;99.90;;;;;;6243721;23;20044;-87
2021/11/12 23:28:57;;;;;;;212.50;87.80;;;0.20;99.90;;;;;;6244890;23;20078;-87
2021/11/12 23:31:49;;;;;;;184.80;84.68;;;0.30;99.90;;;;;;6222473;23;20027;-86
2021/11/12 23:34:37;;;;;;;191.73;84.80;;;0.40;99.90;;;;;;6243596;23;20121;-87
2021/11/12 23:37:26;;;;;;;197.77;82.18;;;0.60;99.90;;;;;;6244006;23;20031;-87
2021/11/12 23:40:16;;;;;;;206.05;85.80;;;0.90;99.90;;;;;;6243932;23;20105;-86
2021/11/12 23:43:03;;;;;;;222.50;95.35;;;1.30;99.90;;;;;;6244631;23;20051;-86
2021/11/12 23:45:51;;;;;;;207.07;90.68;;;1.50;99.90;;;;;;6225423;23;20035;-85
2021/11/12 23:48:38;;;;;;;224.40;93.15;;;1.60;99.90;;;;;;6244511;23;20319;-86
2021/11/12 23:51:26;;;;;;;188.88;82.38;;;1.60;99.90;;;;;;6242511;23;20067;-84
2021/11/12 23:54:16;;;;;;;185.35;78.75;;;1.50;99.90;;;;;;6245099;23;20428;-86
2021/11/12 23:57:06;;;;;;;198.02;83.03;;;1.50;99.90;;;;;;6223468;23;20107;-86
2021/11/12 23:59:53;;;;;;;211.35;87.95;;;1.60;99.90;;;;;;6246258;23;20407;-86
